sensor_id;sensor_type;location;lat;lon;timestamp;P1;durP1;ratioP1;P2;durP2;ratioP2
15404;SDS011;7801;48.124;11.590;2023-08-06T00:00:35;1.30;;;1.30;;
15404;SDS011;7801;48.124;11.590;2023-08-06T00:03:01;4.47;;;1.73;;
15404;SDS011;7801;48.124;11.590;2023-08-06T00:05:26;0.90;;;0.90;;
15404;SDS011;7801;48.124;11.590;2023-08-06T00:07:51;1.90;;;1.80;;
15404;SDS011;7801;48.124;11.590;2023-08-06T00:10:17;1.50;;;1.10;;
15404;SDS011;7801;48.124;11.590;2023-08-06T00:12:42;1.10;;;1.10;;
15404;SDS011;7801;48.124;11.590;2023-08-06T00:15:11;5.63;;;1.50;;
15404;SDS011;7801;48.124;11.590;2023-08-06T00:17:36;0.97;;;0.97;;
15404;SDS011;7801;48.124;11.590;2023-08-06T00:20:02;1.10;;;1.10;;
15404;SDS011;7801;48.124;11.590;2023-08-06T00:22:35;1.17;;;1.17;;
15404;SDS011;7801;48.124;11.590;2023-08-06T00:25:02;0.60;;;0.60;;
15404;SDS011;7801;48.124;11.590;2023-08-06T00:27:28;1.67;;;1.57;;
15404;SDS011;7801;48.124;11.590;2023-08-06T00:29:54;1.83;;;1.20;;
15404;SDS011;7801;48.124;11.590;2023-08-06T00:32:19;1.17;;;1.17;;
15404;SDS011;7801;48.124;11.590;2023-08-06T00:34:45;0.67;;;0.67;;
15404;SDS011;7801;48.124;11.590;2023-08-06T00:37:16;0.80;;;0.80;;
15404;SDS011;7801;48.124;11.590;2023-08-06T00:39:42;0.87;;;0.87;;
15404;SDS011;7801;48.124;11.590;2023-08-06T00:42:08;1.13;;;1.03;;
15404;SDS011;7801;48.124;11.590;2023-08-06T00:44:33;0.53;;;0.53;;
15404;SDS011;7801;48.124;11.590;2023-08-06T00:46:59;0.50;;;0.50;;
15404;SDS011;7801;48.124;11.590;2023-08-06T00:49:24;0.90;;;0.90;;
15404;SDS011;7801;48.124;11.590;2023-08-06T00:51:50;0.50;;;0.50;;
15404;SDS011;7801;48.124;11.590;2023-08-06T00:54:15;0.87;;;0.87;;
15404;SDS011;7801;48.124;11.590;2023-08-06T00:56:41;1.33;;;1.33;;
15404;SDS011;7801;48.124;11.590;2023-08-06T00:59:07;1.00;;;1.00;;
15404;SDS011;7801;48.124;11.590;2023-08-06T01:01:35;0.87;;;0.87;;
15404;SDS011;7801;48.124;11.590;2023-08-06T01:04:00;0.70;;;0.70;;
15404;SDS011;7801;48.124;11.590;2023-08-06T01:06:43;0.67;;;0.67;;
15404;SDS011;7801;48.124;11.590;2023-08-06T01:09:21;0.70;;;0.70;;
15404;SDS011;7801;48.124;11.590;2023-08-06T01:15:04;0.70;;;0.70;;
15404;SDS011;7801;48.124;11.590;2023-08-06T01:17:36;0.83;;;0.63;;
15404;SDS011;7801;48.124;11.590;2023-08-06T01:20:02;0.70;;;0.70;;
15404;SDS011;7801;48.124;11.590;2023-08-06T01:22:29;1.00;;;1.00;;
15404;SDS011;7801;48.124;11.590;2023-08-06T01:24:54;1.10;;;1.10;;
15404;SDS011;7801;48.124;11.590;2023-08-06T01:30:02;0.93;;;0.93;;
15404;SDS011;7801;48.124;11.590;2023-08-06T01:32:34;3.50;;;0.90;;
15404;SDS011;7801;48.124;11.590;2023-08-06T01:35:04;1.13;;;1.13;;
15404;SDS011;7801;48.124;11.590;2023-08-06T01:37:30;1.40;;;1.30;;
15404;SDS011;7801;48.124;11.590;2023-08-06T01:39:56;1.23;;;1.00;;
15404;SDS011;7801;48.124;11.590;2023-08-06T01:42:21;2.60;;;2.30;;
15404;SDS011;7801;48.124;11.590;2023-08-06T01:44:46;1.33;;;1.33;;
15404;SDS011;7801;48.124;11.590;2023-08-06T01:47:12;0.90;;;0.90;;
15404;SDS011;7801;48.124;11.590;2023-08-06T01:49:37;1.03;;;1.03;;
15404;SDS011;7801;48.124;11.590;2023-08-06T01:52:02;0.63;;;0.63;;
15404;SDS011;7801;48.124;11.590;2023-08-06T01:54:28;1.07;;;1.07;;
15404;SDS011;7801;48.124;11.590;2023-08-06T01:56:53;6.57;;;0.70;;
15404;SDS011;7801;48.124;11.590;2023-08-06T01:59:18;1.83;;;1.23;;
15404;SDS011;7801;48.124;11.590;2023-08-06T02:01:44;1.40;;;1.30;;
15404;SDS011;7801;48.124;11.590;2023-08-06T02:04:10;1.00;;;1.00;;
15404;SDS011;7801;48.124;11.590;2023-08-06T02:06:35;1.03;;;1.03;;
15404;SDS011;7801;48.124;11.590;2023-08-06T02:09:00;0.80;;;0.80;;
15404;SDS011;7801;48.124;11.590;2023-08-06T02:11:26;0.57;;;0.57;;
15404;SDS011;7801;48.124;11.590;2023-08-06T02:13:51;1.37;;;1.27;;
15404;SDS011;7801;48.124;11.590;2023-08-06T02:16:16;0.70;;;0.70;;
15404;SDS011;7801;48.124;11.590;2023-08-06T02:18:41;1.50;;;1.50;;
15404;SDS011;7801;48.124;11.590;2023-08-06T02:21:07;0.70;;;0.70;;
15404;SDS011;7801;48.124;11.590;2023-08-06T02:23:32;1.07;;;1.07;;
15404;SDS011;7801;48.124;11.590;2023-08-06T02:26:01;0.80;;;0.80;;
15404;SDS011;7801;48.124;11.590;2023-08-06T02:28:28;1.47;;;1.37;;
15404;SDS011;7801;48.124;11.590;2023-08-06T02:30:54;1.23;;;0.73;;
15404;SDS011;7801;48.124;11.590;2023-08-06T02:33:19;0.87;;;0.87;;
15404;SDS011;7801;48.124;11.590;2023-08-06T02:35:44;0.30;;;0.30;;
15404;SDS011;7801;48.124;11.590;2023-08-06T02:38:10;0.60;;;0.60;;
15404;SDS011;7801;48.124;11.590;2023-08-06T02:40:35;1.83;;;0.93;;
15404;SDS011;7801;48.124;11.590;2023-08-06T02:43:00;0.50;;;0.50;;
15404;SDS011;7801;48.124;11.590;2023-08-06T02:45:26;0.90;;;0.90;;
15404;SDS011;7801;48.124;11.590;2023-08-06T02:47:51;0.53;;;0.53;;
15404;SDS011;7801;48.124;11.590;2023-08-06T02:50:16;0.80;;;0.80;;
15404;SDS011;7801;48.124;11.590;2023-08-06T02:52:42;0.93;;;0.93;;
15404;SDS011;7801;48.124;11.590;2023-08-06T02:55:07;0.30;;;0.30;;
15404;SDS011;7801;48.124;11.590;2023-08-06T02:57:32;0.60;;;0.60;;
15404;SDS011;7801;48.124;11.590;2023-08-06T02:59:58;0.30;;;0.30;;
15404;SDS011;7801;48.124;11.590;2023-08-06T03:02:23;0.60;;;0.60;;
15404;SDS011;7801;48.124;11.590;2023-08-06T03:04:48;0.77;;;0.77;;
15404;SDS011;7801;48.124;11.590;2023-08-06T03:07:14;0.47;;;0.47;;
15404;SDS011;7801;48.124;11.590;2023-08-06T03:09:39;0.83;;;0.83;;
15404;SDS011;7801;48.124;11.590;2023-08-06T03:12:04;0.87;;;0.87;;
15404;SDS011;7801;48.124;11.590;2023-08-06T03:14:30;0.30;;;0.30;;
15404;SDS011;7801;48.124;11.590;2023-08-06T03:16:55;1.10;;;1.00;;
15404;SDS011;7801;48.124;11.590;2023-08-06T03:19:21;0.57;;;0.57;;
15404;SDS011;7801;48.124;11.590;2023-08-06T03:21:46;3.03;;;1.10;;
15404;SDS011;7801;48.124;11.590;2023-08-06T03:24:13;0.30;;;0.30;;
15404;SDS011;7801;48.124;11.590;2023-08-06T03:26:38;0.63;;;0.63;;
15404;SDS011;7801;48.124;11.590;2023-08-06T03:29:04;0.57;;;0.57;;
15404;SDS011;7801;48.124;11.590;2023-08-06T03:31:29;0.50;;;0.50;;
15404;SDS011;7801;48.124;11.590;2023-08-06T03:33:54;0.67;;;0.67;;
15404;SDS011;7801;48.124;11.590;2023-08-06T03:36:20;0.67;;;0.67;;
15404;SDS011;7801;48.124;11.590;2023-08-06T03:38:45;0.27;;;0.27;;
15404;SDS011;7801;48.124;11.590;2023-08-06T03:41:11;0.37;;;0.37;;
15404;SDS011;7801;48.124;11.590;2023-08-06T03:43:36;0.63;;;0.63;;
15404;SDS011;7801;48.124;11.590;2023-08-06T03:46:01;0.87;;;0.87;;
15404;SDS011;7801;48.124;11.590;2023-08-06T03:48:26;5.00;;;0.60;;
15404;SDS011;7801;48.124;11.590;2023-08-06T03:50:52;0.40;;;0.40;;
15404;SDS011;7801;48.124;11.590;2023-08-06T03:53:17;0.20;;;0.20;;
15404;SDS011;7801;48.124;11.590;2023-08-06T03:55:42;1.03;;;0.67;;
15404;SDS011;7801;48.124;11.590;2023-08-06T03:58:08;1.27;;;1.07;;
15404;SDS011;7801;48.124;11.590;2023-08-06T04:00:33;0.73;;;0.73;;
15404;SDS011;7801;48.124;11.590;2023-08-06T04:02:58;0.30;;;0.30;;
15404;SDS011;7801;48.124;11.590;2023-08-06T04:05:23;0.83;;;0.83;;
15404;SDS011;7801;48.124;11.590;2023-08-06T04:07:49;0.67;;;0.67;;
15404;SDS011;7801;48.124;11.590;2023-08-06T04:10:14;0.50;;;0.40;;
15404;SDS011;7801;48.124;11.590;2023-08-06T04:12:40;0.47;;;0.47;;
15404;SDS011;7801;48.124;11.590;2023-08-06T04:15:05;0.90;;;0.90;;
15404;SDS011;7801;48.124;11.590;2023-08-06T04:17:31;0.93;;;0.70;;
15404;SDS011;7801;48.124;11.590;2023-08-06T04:19:56;0.40;;;0.40;;
15404;SDS011;7801;48.124;11.590;2023-08-06T04:22:25;0.50;;;0.40;;
15404;SDS011;7801;48.124;11.590;2023-08-06T04:24:50;0.23;;;0.23;;
15404;SDS011;7801;48.124;11.590;2023-08-06T04:27:16;0.90;;;0.90;;
15404;SDS011;7801;48.124;11.590;2023-08-06T04:29:43;0.20;;;0.20;;
15404;SDS011;7801;48.124;11.590;2023-08-06T04:32:09;0.90;;;0.90;;
15404;SDS011;7801;48.124;11.590;2023-08-06T04:34:35;0.37;;;0.37;;
15404;SDS011;7801;48.124;11.590;2023-08-06T04:37:01;0.30;;;0.30;;
15404;SDS011;7801;48.124;11.590;2023-08-06T04:39:28;0.63;;;0.63;;
15404;SDS011;7801;48.124;11.590;2023-08-06T04:41:53;0.70;;;0.50;;
15404;SDS011;7801;48.124;11.590;2023-08-06T04:44:18;0.77;;;0.77;;
15404;SDS011;7801;48.124;11.590;2023-08-06T04:46:44;0.13;;;0.13;;
15404;SDS011;7801;48.124;11.590;2023-08-06T04:49:09;3.07;;;0.80;;
15404;SDS011;7801;48.124;11.590;2023-08-06T04:51:34;0.20;;;0.20;;
15404;SDS011;7801;48.124;11.590;2023-08-06T04:54:00;0.50;;;0.50;;
15404;SDS011;7801;48.124;11.590;2023-08-06T04:56:25;0.80;;;0.80;;
15404;SDS011;7801;48.124;11.590;2023-08-06T04:58:51;0.60;;;0.60;;
15404;SDS011;7801;48.124;11.590;2023-08-06T05:01:16;0.50;;;0.50;;
15404;SDS011;7801;48.124;11.590;2023-08-06T05:03:41;1.00;;;1.00;;
15404;SDS011;7801;48.124;11.590;2023-08-06T05:06:07;0.50;;;0.50;;
15404;SDS011;7801;48.124;11.590;2023-08-06T05:08:32;0.60;;;0.60;;
15404;SDS011;7801;48.124;11.590;2023-08-06T05:10:58;0.20;;;0.20;;
15404;SDS011;7801;48.124;11.590;2023-08-06T05:13:23;0.60;;;0.60;;
15404;SDS011;7801;48.124;11.590;2023-08-06T05:15:48;1.33;;;0.77;;
15404;SDS011;7801;48.124;11.590;2023-08-06T05:18:14;0.37;;;0.37;;
15404;SDS011;7801;48.124;11.590;2023-08-06T05:20:40;0.50;;;0.50;;
15404;SDS011;7801;48.124;11.590;2023-08-06T05:23:06;0.40;;;0.40;;
15404;SDS011;7801;48.124;11.590;2023-08-06T05:25:34;1.13;;;0.67;;
15404;SDS011;7801;48.124;11.590;2023-08-06T05:27:59;0.30;;;0.30;;
15404;SDS011;7801;48.124;11.590;2023-08-06T05:30:26;0.77;;;0.50;;
15404;SDS011;7801;48.124;11.590;2023-08-06T05:32:52;0.63;;;0.63;;
15404;SDS011;7801;48.124;11.590;2023-08-06T05:35:17;0.50;;;0.50;;
15404;SDS011;7801;48.124;11.590;2023-08-06T05:37:42;1.10;;;0.70;;
15404;SDS011;7801;48.124;11.590;2023-08-06T05:40:08;0.60;;;0.60;;
15404;SDS011;7801;48.124;11.590;2023-08-06T05:42:33;4.30;;;1.47;;
15404;SDS011;7801;48.124;11.590;2023-08-06T05:44:58;0.40;;;0.40;;
15404;SDS011;7801;48.124;11.590;2023-08-06T05:47:24;0.50;;;0.50;;
15404;SDS011;7801;48.124;11.590;2023-08-06T05:49:49;0.70;;;0.70;;
15404;SDS011;7801;48.124;11.590;2023-08-06T05:52:14;0.60;;;0.60;;
15404;SDS011;7801;48.124;11.590;2023-08-06T05:54:40;0.40;;;0.40;;
15404;SDS011;7801;48.124;11.590;2023-08-06T05:57:05;0.73;;;0.73;;
15404;SDS011;7801;48.124;11.590;2023-08-06T05:59:31;0.40;;;0.40;;
15404;SDS011;7801;48.124;11.590;2023-08-06T06:01:56;0.40;;;0.40;;
15404;SDS011;7801;48.124;11.590;2023-08-06T06:04:22;0.70;;;0.70;;
15404;SDS011;7801;48.124;11.590;2023-08-06T06:06:47;0.30;;;0.30;;
15404;SDS011;7801;48.124;11.590;2023-08-06T06:09:12;0.87;;;0.67;;
15404;SDS011;7801;48.124;11.590;2023-08-06T06:11:38;1.80;;;1.00;;
15404;SDS011;7801;48.124;11.590;2023-08-06T06:14:03;0.53;;;0.53;;
15404;SDS011;7801;48.124;11.590;2023-08-06T06:16:28;0.63;;;0.63;;
15404;SDS011;7801;48.124;11.590;2023-08-06T06:18:54;0.30;;;0.30;;
15404;SDS011;7801;48.124;11.590;2023-08-06T06:21:19;0.50;;;0.50;;
15404;SDS011;7801;48.124;11.590;2023-08-06T06:23:45;0.37;;;0.37;;
15404;SDS011;7801;48.124;11.590;2023-08-06T06:26:10;0.30;;;0.30;;
15404;SDS011;7801;48.124;11.590;2023-08-06T06:28:36;0.40;;;0.40;;
15404;SDS011;7801;48.124;11.590;2023-08-06T06:31:01;0.20;;;0.20;;
15404;SDS011;7801;48.124;11.590;2023-08-06T06:33:27;0.13;;;0.13;;
15404;SDS011;7801;48.124;11.590;2023-08-06T06:35:52;0.33;;;0.33;;
15404;SDS011;7801;48.124;11.590;2023-08-06T06:38:18;0.50;;;0.50;;
15404;SDS011;7801;48.124;11.590;2023-08-06T06:40:43;0.13;;;0.13;;
15404;SDS011;7801;48.124;11.590;2023-08-06T06:43:08;0.47;;;0.47;;
15404;SDS011;7801;48.124;11.590;2023-08-06T06:45:34;0.30;;;0.30;;
15404;SDS011;7801;48.124;11.590;2023-08-06T06:47:59;0.63;;;0.63;;
15404;SDS011;7801;48.124;11.590;2023-08-06T06:50:24;0.70;;;0.70;;
15404;SDS011;7801;48.124;11.590;2023-08-06T06:52:51;0.90;;;0.90;;
15404;SDS011;7801;48.124;11.590;2023-08-06T06:55:16;0.27;;;0.27;;
15404;SDS011;7801;48.124;11.590;2023-08-06T06:57:41;0.30;;;0.30;;
15404;SDS011;7801;48.124;11.590;2023-08-06T07:00:07;0.10;;;0.10;;
15404;SDS011;7801;48.124;11.590;2023-08-06T07:02:33;0.30;;;0.30;;
15404;SDS011;7801;48.124;11.590;2023-08-06T07:04:58;0.50;;;0.30;;
15404;SDS011;7801;48.124;11.590;2023-08-06T07:07:23;0.20;;;0.20;;
15404;SDS011;7801;48.124;11.590;2023-08-06T07:09:49;0.13;;;0.13;;
15404;SDS011;7801;48.124;11.590;2023-08-06T07:12:14;0.70;;;0.70;;
15404;SDS011;7801;48.124;11.590;2023-08-06T07:14:39;0.70;;;0.70;;
15404;SDS011;7801;48.124;11.590;2023-08-06T07:17:05;3.37;;;0.70;;
15404;SDS011;7801;48.124;11.590;2023-08-06T07:19:30;0.20;;;0.20;;
15404;SDS011;7801;48.124;11.590;2023-08-06T07:21:56;0.10;;;0.10;;
15404;SDS011;7801;48.124;11.590;2023-08-06T07:24:21;0.40;;;0.40;;
15404;SDS011;7801;48.124;11.590;2023-08-06T07:26:46;0.17;;;0.17;;
15404;SDS011;7801;48.124;11.590;2023-08-06T07:29:12;0.00;;;0.00;;
15404;SDS011;7801;48.124;11.590;2023-08-06T07:31:37;0.30;;;0.30;;
15404;SDS011;7801;48.124;11.590;2023-08-06T07:34:03;0.00;;;0.00;;
15404;SDS011;7801;48.124;11.590;2023-08-06T07:36:28;0.30;;;0.30;;
15404;SDS011;7801;48.124;11.590;2023-08-06T07:38:53;0.57;;;0.57;;
15404;SDS011;7801;48.124;11.590;2023-08-06T07:41:24;0.30;;;0.30;;
15404;SDS011;7801;48.124;11.590;2023-08-06T07:43:49;0.57;;;0.57;;
15404;SDS011;7801;48.124;11.590;2023-08-06T07:46:15;0.10;;;0.10;;
15404;SDS011;7801;48.124;11.590;2023-08-06T07:48:40;0.17;;;0.17;;
15404;SDS011;7801;48.124;11.590;2023-08-06T07:51:05;1.57;;;0.30;;
15404;SDS011;7801;48.124;11.590;2023-08-06T07:53:30;0.23;;;0.23;;
15404;SDS011;7801;48.124;11.590;2023-08-06T07:55:56;0.50;;;0.50;;
15404;SDS011;7801;48.124;11.590;2023-08-06T07:58:23;1.80;;;0.40;;
15404;SDS011;7801;48.124;11.590;2023-08-06T08:00:49;0.33;;;0.33;;
15404;SDS011;7801;48.124;11.590;2023-08-06T08:03:15;0.00;;;0.00;;
15404;SDS011;7801;48.124;11.590;2023-08-06T08:05:41;0.00;;;0.00;;
15404;SDS011;7801;48.124;11.590;2023-08-06T08:08:09;0.33;;;0.33;;
15404;SDS011;7801;48.124;11.590;2023-08-06T08:10:35;0.00;;;0.00;;
15404;SDS011;7801;48.124;11.590;2023-08-06T08:13:04;0.10;;;0.10;;
15404;SDS011;7801;48.124;11.590;2023-08-06T08:15:30;0.10;;;0.10;;
15404;SDS011;7801;48.124;11.590;2023-08-06T08:17:56;0.87;;;0.47;;
15404;SDS011;7801;48.124;11.590;2023-08-06T08:20:22;0.10;;;0.10;;
15404;SDS011;7801;48.124;11.590;2023-08-06T08:22:48;0.30;;;0.30;;
15404;SDS011;7801;48.124;11.590;2023-08-06T08:25:13;0.93;;;0.50;;
15404;SDS011;7801;48.124;11.590;2023-08-06T08:27:39;0.23;;;0.23;;
15404;SDS011;7801;48.124;11.590;2023-08-06T08:30:04;0.00;;;0.00;;
15404;SDS011;7801;48.124;11.590;2023-08-06T08:32:30;1.17;;;0.57;;
15404;SDS011;7801;48.124;11.590;2023-08-06T08:34:55;0.53;;;0.53;;
15404;SDS011;7801;48.124;11.590;2023-08-06T08:37:21;0.20;;;0.20;;
15404;SDS011;7801;48.124;11.590;2023-08-06T08:39:46;0.00;;;0.00;;
15404;SDS011;7801;48.124;11.590;2023-08-06T08:42:11;2.10;;;0.50;;
15404;SDS011;7801;48.124;11.590;2023-08-06T08:44:37;0.10;;;0.10;;
15404;SDS011;7801;48.124;11.590;2023-08-06T08:47:07;0.03;;;0.03;;
15404;SDS011;7801;48.124;11.590;2023-08-06T08:49:34;0.10;;;0.10;;
15404;SDS011;7801;48.124;11.590;2023-08-06T08:52:01;0.00;;;0.00;;
15404;SDS011;7801;48.124;11.590;2023-08-06T08:54:30;0.27;;;0.10;;
15404;SDS011;7801;48.124;11.590;2023-08-06T08:56:56;0.20;;;0.20;;
15404;SDS011;7801;48.124;11.590;2023-08-06T08:59:22;0.10;;;0.10;;
15404;SDS011;7801;48.124;11.590;2023-08-06T09:01:48;0.40;;;0.20;;
15404;SDS011;7801;48.124;11.590;2023-08-06T09:04:17;0.17;;;0.17;;
15404;SDS011;7801;48.124;11.590;2023-08-06T09:06:43;0.10;;;0.10;;
15404;SDS011;7801;48.124;11.590;2023-08-06T09:09:12;0.10;;;0.10;;
15404;SDS011;7801;48.124;11.590;2023-08-06T09:11:42;0.00;;;0.00;;
15404;SDS011;7801;48.124;11.590;2023-08-06T09:14:09;1.37;;;0.13;;
15404;SDS011;7801;48.124;11.590;2023-08-06T09:16:35;0.10;;;0.10;;
15404;SDS011;7801;48.124;11.590;2023-08-06T09:19:10;0.17;;;0.17;;
15404;SDS011;7801;48.124;11.590;2023-08-06T09:21:43;0.10;;;0.10;;
15404;SDS011;7801;48.124;11.590;2023-08-06T09:24:09;0.10;;;0.10;;
15404;SDS011;7801;48.124;11.590;2023-08-06T09:26:36;0.57;;;0.30;;
15404;SDS011;7801;48.124;11.590;2023-08-06T09:29:03;0.00;;;0.00;;
15404;SDS011;7801;48.124;11.590;2023-08-06T09:31:33;0.47;;;0.40;;
15404;SDS011;7801;48.124;11.590;2023-08-06T09:34:06;0.10;;;0.10;;
15404;SDS011;7801;48.124;11.590;2023-08-06T09:36:50;0.10;;;0.10;;
15404;SDS011;7801;48.124;11.590;2023-08-06T09:39:20;0.00;;;0.00;;
15404;SDS011;7801;48.124;11.590;2023-08-06T09:41:47;0.00;;;0.00;;
15404;SDS011;7801;48.124;11.590;2023-08-06T09:44:19;4.07;;;0.30;;
15404;SDS011;7801;48.124;11.590;2023-08-06T09:46:50;0.10;;;0.10;;
15404;SDS011;7801;48.124;11.590;2023-08-06T09:49:17;0.00;;;0.00;;
15404;SDS011;7801;48.124;11.590;2023-08-06T09:51:44;0.00;;;0.00;;
15404;SDS011;7801;48.124;11.590;2023-08-06T09:54:12;0.30;;;0.30;;
15404;SDS011;7801;48.124;11.590;2023-08-06T09:56:39;0.00;;;0.00;;
15404;SDS011;7801;48.124;11.590;2023-08-06T09:59:05;0.10;;;0.10;;
15404;SDS011;7801;48.124;11.590;2023-08-06T10:01:34;0.23;;;0.23;;
15404;SDS011;7801;48.124;11.590;2023-08-06T10:04:01;0.00;;;0.00;;
15404;SDS011;7801;48.124;11.590;2023-08-06T10:06:28;0.00;;;0.00;;
15404;SDS011;7801;48.124;11.590;2023-08-06T10:08:54;0.00;;;0.00;;
15404;SDS011;7801;48.124;11.590;2023-08-06T10:11:20;0.00;;;0.00;;
15404;SDS011;7801;48.124;11.590;2023-08-06T10:13:47;0.00;;;0.00;;
15404;SDS011;7801;48.124;11.590;2023-08-06T10:16:15;0.00;;;0.00;;
15404;SDS011;7801;48.124;11.590;2023-08-06T10:18:40;0.00;;;0.00;;
15404;SDS011;7801;48.124;11.590;2023-08-06T10:21:08;0.10;;;0.10;;
15404;SDS011;7801;48.124;11.590;2023-08-06T10:23:34;0.00;;;0.00;;
15404;SDS011;7801;48.124;11.590;2023-08-06T10:26:02;0.20;;;0.20;;
15404;SDS011;7801;48.124;11.590;2023-08-06T10:28:37;0.00;;;0.00;;
15404;SDS011;7801;48.124;11.590;2023-08-06T10:31:03;0.00;;;0.00;;
15404;SDS011;7801;48.124;11.590;2023-08-06T10:33:43;0.00;;;0.00;;
15404;SDS011;7801;48.124;11.590;2023-08-06T10:36:10;0.00;;;0.00;;
15404;SDS011;7801;48.124;11.590;2023-08-06T10:38:43;0.10;;;0.10;;
15404;SDS011;7801;48.124;11.590;2023-08-06T10:41:14;0.13;;;0.13;;
15404;SDS011;7801;48.124;11.590;2023-08-06T10:43:42;0.10;;;0.10;;
15404;SDS011;7801;48.124;11.590;2023-08-06T10:46:10;0.00;;;0.00;;
15404;SDS011;7801;48.124;11.590;2023-08-06T10:48:38;0.00;;;0.00;;
15404;SDS011;7801;48.124;11.590;2023-08-06T10:51:08;0.77;;;0.20;;
15404;SDS011;7801;48.124;11.590;2023-08-06T10:53:38;0.00;;;0.00;;
15404;SDS011;7801;48.124;11.590;2023-08-06T10:56:16;0.00;;;0.00;;
15404;SDS011;7801;48.124;11.590;2023-08-06T10:58:42;0.00;;;0.00;;
15404;SDS011;7801;48.124;11.590;2023-08-06T11:01:09;0.20;;;0.10;;
15404;SDS011;7801;48.124;11.590;2023-08-06T11:03:35;0.10;;;0.10;;
15404;SDS011;7801;48.124;11.590;2023-08-06T11:06:01;0.07;;;0.07;;
15404;SDS011;7801;48.124;11.590;2023-08-06T11:08:28;0.00;;;0.00;;
15404;SDS011;7801;48.124;11.590;2023-08-06T11:10:54;0.00;;;0.00;;
15404;SDS011;7801;48.124;11.590;2023-08-06T11:13:20;0.13;;;0.13;;
15404;SDS011;7801;48.124;11.590;2023-08-06T11:15:46;0.00;;;0.00;;
15404;SDS011;7801;48.124;11.590;2023-08-06T11:18:11;0.00;;;0.00;;
15404;SDS011;7801;48.124;11.590;2023-08-06T11:20:37;0.00;;;0.00;;
15404;SDS011;7801;48.124;11.590;2023-08-06T11:23:03;0.00;;;0.00;;
15404;SDS011;7801;48.124;11.590;2023-08-06T11:25:29;0.00;;;0.00;;
15404;SDS011;7801;48.124;11.590;2023-08-06T11:27:55;0.00;;;0.00;;
15404;SDS011;7801;48.124;11.590;2023-08-06T11:30:20;0.00;;;0.00;;
15404;SDS011;7801;48.124;11.590;2023-08-06T11:32:48;0.00;;;0.00;;
15404;SDS011;7801;48.124;11.590;2023-08-06T11:35:17;0.00;;;0.00;;
15404;SDS011;7801;48.124;11.590;2023-08-06T11:37:43;0.00;;;0.00;;
15404;SDS011;7801;48.124;11.590;2023-08-06T11:40:13;0.00;;;0.00;;
15404;SDS011;7801;48.124;11.590;2023-08-06T11:42:40;0.00;;;0.00;;
15404;SDS011;7801;48.124;11.590;2023-08-06T11:45:07;0.00;;;0.00;;
15404;SDS011;7801;48.124;11.590;2023-08-06T11:47:36;0.10;;;0.10;;
15404;SDS011;7801;48.124;11.590;2023-08-06T11:50:03;0.50;;;0.30;;
15404;SDS011;7801;48.124;11.590;2023-08-06T11:52:29;0.00;;;0.00;;
15404;SDS011;7801;48.124;11.590;2023-08-06T11:55:05;0.20;;;0.17;;
15404;SDS011;7801;48.124;11.590;2023-08-06T11:57:33;0.00;;;0.00;;
15404;SDS011;7801;48.124;11.590;2023-08-06T12:00:02;0.00;;;0.00;;
15404;SDS011;7801;48.124;11.590;2023-08-06T12:02:30;0.00;;;0.00;;
15404;SDS011;7801;48.124;11.590;2023-08-06T12:05:02;0.10;;;0.10;;
15404;SDS011;7801;48.124;11.590;2023-08-06T12:07:39;0.40;;;0.40;;
15404;SDS011;7801;48.124;11.590;2023-08-06T12:10:06;0.00;;;0.00;;
15404;SDS011;7801;48.124;11.590;2023-08-06T12:12:32;0.00;;;0.00;;
15404;SDS011;7801;48.124;11.590;2023-08-06T12:14:58;0.00;;;0.00;;
15404;SDS011;7801;48.124;11.590;2023-08-06T12:17:23;0.00;;;0.00;;
15404;SDS011;7801;48.124;11.590;2023-08-06T12:19:49;1.43;;;0.10;;
15404;SDS011;7801;48.124;11.590;2023-08-06T12:22:15;0.00;;;0.00;;
15404;SDS011;7801;48.124;11.590;2023-08-06T12:24:41;0.10;;;0.10;;
15404;SDS011;7801;48.124;11.590;2023-08-06T12:27:08;0.00;;;0.00;;
15404;SDS011;7801;48.124;11.590;2023-08-06T12:29:33;2.83;;;0.63;;
15404;SDS011;7801;48.124;11.590;2023-08-06T12:31:59;0.10;;;0.10;;
15404;SDS011;7801;48.124;11.590;2023-08-06T12:34:24;0.40;;;0.40;;
15404;SDS011;7801;48.124;11.590;2023-08-06T12:36:49;0.20;;;0.20;;
15404;SDS011;7801;48.124;11.590;2023-08-06T12:39:15;0.00;;;0.00;;
15404;SDS011;7801;48.124;11.590;2023-08-06T12:41:40;0.00;;;0.00;;
15404;SDS011;7801;48.124;11.590;2023-08-06T12:44:05;0.00;;;0.00;;
15404;SDS011;7801;48.124;11.590;2023-08-06T12:46:31;0.00;;;0.00;;
15404;SDS011;7801;48.124;11.590;2023-08-06T12:48:56;0.00;;;0.00;;
15404;SDS011;7801;48.124;11.590;2023-08-06T12:51:22;0.10;;;0.10;;
15404;SDS011;7801;48.124;11.590;2023-08-06T12:53:48;0.10;;;0.10;;
15404;SDS011;7801;48.124;11.590;2023-08-06T12:56:14;0.20;;;0.20;;
15404;SDS011;7801;48.124;11.590;2023-08-06T12:58:39;0.10;;;0.10;;
15404;SDS011;7801;48.124;11.590;2023-08-06T13:01:05;0.00;;;0.00;;
15404;SDS011;7801;48.124;11.590;2023-08-06T13:03:30;0.00;;;0.00;;
15404;SDS011;7801;48.124;11.590;2023-08-06T13:05:56;0.10;;;0.10;;
15404;SDS011;7801;48.124;11.590;2023-08-06T13:08:22;0.00;;;0.00;;
15404;SDS011;7801;48.124;11.590;2023-08-06T13:10:48;0.10;;;0.10;;
15404;SDS011;7801;48.124;11.590;2023-08-06T13:13:13;0.00;;;0.00;;
15404;SDS011;7801;48.124;11.590;2023-08-06T13:15:39;0.10;;;0.10;;
15404;SDS011;7801;48.124;11.590;2023-08-06T13:18:04;0.00;;;0.00;;
15404;SDS011;7801;48.124;11.590;2023-08-06T13:20:30;0.00;;;0.00;;
15404;SDS011;7801;48.124;11.590;2023-08-06T13:22:57;0.00;;;0.00;;
15404;SDS011;7801;48.124;11.590;2023-08-06T13:25:23;0.00;;;0.00;;
15404;SDS011;7801;48.124;11.590;2023-08-06T13:27:48;0.00;;;0.00;;
15404;SDS011;7801;48.124;11.590;2023-08-06T13:30:14;0.00;;;0.00;;
15404;SDS011;7801;48.124;11.590;2023-08-06T13:32:39;0.00;;;0.00;;
15404;SDS011;7801;48.124;11.590;2023-08-06T13:35:05;0.00;;;0.00;;
15404;SDS011;7801;48.124;11.590;2023-08-06T13:37:30;0.00;;;0.00;;
15404;SDS011;7801;48.124;11.590;2023-08-06T13:39:56;0.13;;;0.13;;
15404;SDS011;7801;48.124;11.590;2023-08-06T13:42:21;0.27;;;0.23;;
15404;SDS011;7801;48.124;11.590;2023-08-06T13:44:47;0.10;;;0.10;;
15404;SDS011;7801;48.124;11.590;2023-08-06T13:47:12;0.13;;;0.13;;
15404;SDS011;7801;48.124;11.590;2023-08-06T13:49:38;0.03;;;0.03;;
15404;SDS011;7801;48.124;11.590;2023-08-06T13:52:03;0.00;;;0.00;;
15404;SDS011;7801;48.124;11.590;2023-08-06T13:54:29;0.00;;;0.00;;
15404;SDS011;7801;48.124;11.590;2023-08-06T13:56:54;0.10;;;0.10;;
15404;SDS011;7801;48.124;11.590;2023-08-06T13:59:20;0.00;;;0.00;;
15404;SDS011;7801;48.124;11.590;2023-08-06T14:01:49;0.23;;;0.23;;
15404;SDS011;7801;48.124;11.590;2023-08-06T14:04:15;0.00;;;0.00;;
15404;SDS011;7801;48.124;11.590;2023-08-06T14:06:40;0.10;;;0.10;;
15404;SDS011;7801;48.124;11.590;2023-08-06T14:09:05;0.00;;;0.00;;
15404;SDS011;7801;48.124;11.590;2023-08-06T14:11:31;0.00;;;0.00;;
15404;SDS011;7801;48.124;11.590;2023-08-06T14:13:56;0.00;;;0.00;;
15404;SDS011;7801;48.124;11.590;2023-08-06T14:16:21;0.00;;;0.00;;
15404;SDS011;7801;48.124;11.590;2023-08-06T14:18:47;0.00;;;0.00;;
15404;SDS011;7801;48.124;11.590;2023-08-06T14:21:13;0.00;;;0.00;;
15404;SDS011;7801;48.124;11.590;2023-08-06T14:23:39;0.07;;;0.07;;
15404;SDS011;7801;48.124;11.590;2023-08-06T14:26:06;0.13;;;0.13;;
15404;SDS011;7801;48.124;11.590;2023-08-06T14:28:31;0.00;;;0.00;;
15404;SDS011;7801;48.124;11.590;2023-08-06T14:30:57;0.00;;;0.00;;
15404;SDS011;7801;48.124;11.590;2023-08-06T14:33:22;0.10;;;0.10;;
15404;SDS011;7801;48.124;11.590;2023-08-06T14:35:47;0.20;;;0.20;;
15404;SDS011;7801;48.124;11.590;2023-08-06T14:38:13;0.00;;;0.00;;
15404;SDS011;7801;48.124;11.590;2023-08-06T14:40:38;0.00;;;0.00;;
15404;SDS011;7801;48.124;11.590;2023-08-06T14:43:05;0.03;;;0.03;;
15404;SDS011;7801;48.124;11.590;2023-08-06T14:45:31;0.00;;;0.00;;
15404;SDS011;7801;48.124;11.590;2023-08-06T14:47:56;0.20;;;0.20;;